This is the latest recevied weather packets stored in our database for station/object YS1AHL-29. If no packets are shown the sender has not sent any weather packets the latest 10 day(s).
| Time | Temp. | Humidity | Pressure | Rain* | Wind** | Luminosity | Snow |
|---|---|---|---|---|---|---|---|
| 1777425404 | 12.78° C | 83% | 1023 hPa | 0 mm | - | - | - |
| 1777424864 | 11.67° C | 85% | 1023 hPa | 0 mm | - | - | - |
| 1777424263 | 12.78° C | 80% | 1023 hPa | 0 mm | - | - | - |
| 1777423062 | 12.78° C | 81% | 1023 hPa | 0 mm | - | - | - |
| 1777422461 | 12.78° C | 80% | 1022 hPa | 0 mm | - | - | - |
| 1777422401 | 12.78° C | 80% | 1022 hPa | 0 mm | - | - | - |
| 1777421861 | 12.78° C | 80% | 1022 hPa | 0 mm | - | - | - |
| 1777419999 | 12.22° C | 86% | 1023 hPa | 0 mm | - | - | - |
| 1777418858 | 12.78° C | 85% | 1022 hPa | 0 mm | - | - | - |
| 1777413992 | 12.78° C | 89% | 1023 hPa | 0 mm | - | - | - |
| 1777410989 | 12.22° C | 85% | 1023 hPa | 0 mm | - | - | - |
| 1777410388 | 11.67° C | 87% | 1023 hPa | 0 mm | - | - | - |
| 1777409848 | 11.11° C | 89% | 1023 hPa | 0 mm | - | - | - |
| 1777409187 | 11.11° C | 89% | 1023 hPa | 0 mm | - | - | - |
| 1777408586 | 11.67° C | 88% | 1023 hPa | 0 mm | - | - | - |
| 1777407986 | 11.11° C | 90% | 1022 hPa | 0 mm | - | - | - |
| 1777407385 | 11.11° C | 90% | 1022 hPa | 0 mm | - | - | - |
| 1777406785 | 11.11° C | 90% | 1022 hPa | 0 mm | - | - | - |
| 1777406184 | 11.11° C | 90% | 1022 hPa | 0 mm | - | - | - |
| 1777405644 | 11.11° C | 91% | 1023 hPa | 0 mm | - | - | - |
| 1777405584 | 11.11° C | 91% | 1023 hPa | 0 mm | - | - | - |
| 1777405043 | 11.11° C | 91% | 1023 hPa | 0 mm | - | - | - |
| 1777404983 | 11.11° C | 91% | 1023 hPa | 0 mm | - | - | - |
| 1777404382 | 10.56° C | 91% | 1022 hPa | 0 mm | - | - | - |
| 1777403842 | 10.56° C | 91% | 1022 hPa | 0 mm | - | - | - |
* Rain latest hour (hover to see other rain measurements)
** Current wind speed in m/s (hover to see current wind gust speed)